sensor_id;sensor_type;location;lat;lon;timestamp;temperature;humidity
10512;DHT22;5304;48.604;2.096;2023-07-22T04:16:23;11.60;99.90
10512;DHT22;5304;48.604;2.096;2023-07-22T04:19:07;11.60;99.90
10512;DHT22;5304;48.604;2.096;2023-07-22T04:21:52;11.50;99.90
10512;DHT22;5304;48.604;2.096;2023-07-22T04:24:36;11.50;99.90
10512;DHT22;5304;48.604;2.096;2023-07-22T04:27:20;11.50;99.90
10512;DHT22;5304;48.604;2.096;2023-07-22T04:30:05;11.40;99.90
10512;DHT22;5304;48.604;2.096;2023-07-22T04:32:50;11.50;99.90
10512;DHT22;5304;48.604;2.096;2023-07-22T04:35:37;11.50;99.90
10512;DHT22;5304;48.604;2.096;2023-07-22T04:38:22;11.50;99.90
10512;DHT22;5304;48.604;2.096;2023-07-22T04:41:06;11.50;99.90
10512;DHT22;5304;48.604;2.096;2023-07-22T04:43:50;11.50;99.90
10512;DHT22;5304;48.604;2.096;2023-07-22T04:46:35;11.60;99.90
10512;DHT22;5304;48.604;2.096;2023-07-22T04:49:19;11.50;99.90
10512;DHT22;5304;48.604;2.096;2023-07-22T04:52:05;11.50;99.90
10512;DHT22;5304;48.604;2.096;2023-07-22T04:54:49;11.60;99.90
10512;DHT22;5304;48.604;2.096;2023-07-22T04:57:33;11.70;99.90
10512;DHT22;5304;48.604;2.096;2023-07-22T05:00:18;11.70;99.90
10512;DHT22;5304;48.604;2.096;2023-07-22T05:03:04;11.70;99.90
10512;DHT22;5304;48.604;2.096;2023-07-22T05:05:49;11.80;99.90
10512;DHT22;5304;48.604;2.096;2023-07-22T05:08:33;11.80;99.90
10512;DHT22;5304;48.604;2.096;2023-07-22T05:11:18;11.80;99.90
10512;DHT22;5304;48.604;2.096;2023-07-22T05:14:02;11.80;99.90
10512;DHT22;5304;48.604;2.096;2023-07-22T05:16:47;11.90;99.90
10512;DHT22;5304;48.604;2.096;2023-07-22T05:19:32;11.90;99.90
10512;DHT22;5304;48.604;2.096;2023-07-22T05:22:16;11.90;99.90
10512;DHT22;5304;48.604;2.096;2023-07-22T05:25:00;12.00;99.90
10512;DHT22;5304;48.604;2.096;2023-07-22T05:27:45;12.00;99.90
10512;DHT22;5304;48.604;2.096;2023-07-22T05:30:29;12.00;99.90
10512;DHT22;5304;48.604;2.096;2023-07-22T05:33:13;12.10;99.90
10512;DHT22;5304;48.604;2.096;2023-07-22T05:35:58;12.20;99.90
10512;DHT22;5304;48.604;2.096;2023-07-22T05:38:42;12.20;99.90
10512;DHT22;5304;48.604;2.096;2023-07-22T05:41:26;12.20;99.90
10512;DHT22;5304;48.604;2.096;2023-07-22T05:44:11;12.30;99.90
10512;DHT22;5304;48.604;2.096;2023-07-22T05:46:54;12.50;99.90
10512;DHT22;5304;48.604;2.096;2023-07-22T05:49:40;12.50;99.90
10512;DHT22;5304;48.604;2.096;2023-07-22T05:52:24;12.60;99.90
10512;DHT22;5304;48.604;2.096;2023-07-22T05:55:08;12.70;99.90
10512;DHT22;5304;48.604;2.096;2023-07-22T05:57:53;12.80;99.90
10512;DHT22;5304;48.604;2.096;2023-07-22T06:00:38;13.10;99.90
10512;DHT22;5304;48.604;2.096;2023-07-22T06:03:23;13.20;99.90
10512;DHT22;5304;48.604;2.096;2023-07-22T06:06:07;13.50;99.90
10512;DHT22;5304;48.604;2.096;2023-07-22T06:08:51;13.60;99.90
10512;DHT22;5304;48.604;2.096;2023-07-22T06:11:36;13.80;99.90
10512;DHT22;5304;48.604;2.096;2023-07-22T06:14:20;14.20;99.90
10512;DHT22;5304;48.604;2.096;2023-07-22T06:17:04;14.40;99.90
10512;DHT22;5304;48.604;2.096;2023-07-22T06:19:48;14.60;99.90
10512;DHT22;5304;48.604;2.096;2023-07-22T06:22:33;14.90;99.90
10512;DHT22;5304;48.604;2.096;2023-07-22T06:25:17;15.00;99.90
10512;DHT22;5304;48.604;2.096;2023-07-22T06:28:01;15.00;99.90
10512;DHT22;5304;48.604;2.096;2023-07-22T06:30:45;15.10;99.90
10512;DHT22;5304;48.604;2.096;2023-07-22T06:33:30;15.30;99.90
10512;DHT22;5304;48.604;2.096;2023-07-22T06:36:14;15.50;99.90
10512;DHT22;5304;48.604;2.096;2023-07-22T06:38:58;15.70;99.90
10512;DHT22;5304;48.604;2.096;2023-07-22T06:41:42;15.90;99.90
10512;DHT22;5304;48.604;2.096;2023-07-22T06:44:26;16.20;99.90
10512;DHT22;5304;48.604;2.096;2023-07-22T06:47:10;16.40;99.90
10512;DHT22;5304;48.604;2.096;2023-07-22T06:49:55;16.50;99.90
10512;DHT22;5304;48.604;2.096;2023-07-22T06:52:40;16.60;99.90
10512;DHT22;5304;48.604;2.096;2023-07-22T06:55:24;16.60;99.90
10512;DHT22;5304;48.604;2.096;2023-07-22T06:58:08;16.70;99.90
10512;DHT22;5304;48.604;2.096;2023-07-22T07:00:55;16.70;99.90
10512;DHT22;5304;48.604;2.096;2023-07-22T07:03:39;16.80;99.90
10512;DHT22;5304;48.604;2.096;2023-07-22T07:06:24;16.80;99.90
10512;DHT22;5304;48.604;2.096;2023-07-22T07:09:08;16.90;99.90
10512;DHT22;5304;48.604;2.096;2023-07-22T07:11:52;17.10;99.90
10512;DHT22;5304;48.604;2.096;2023-07-22T07:14:39;17.50;99.90
10512;DHT22;5304;48.604;2.096;2023-07-22T07:17:23;17.50;99.90
10512;DHT22;5304;48.604;2.096;2023-07-22T07:20:09;17.90;99.90
10512;DHT22;5304;48.604;2.096;2023-07-22T07:22:53;18.10;99.90
10512;DHT22;5304;48.604;2.096;2023-07-22T07:25:37;18.30;99.90
10512;DHT22;5304;48.604;2.096;2023-07-22T07:28:22;18.70;99.90
10512;DHT22;5304;48.604;2.096;2023-07-22T07:31:06;18.90;99.90
10512;DHT22;5304;48.604;2.096;2023-07-22T07:33:50;18.90;99.90
10512;DHT22;5304;48.604;2.096;2023-07-22T07:36:35;19.00;99.90
10512;DHT22;5304;48.604;2.096;2023-07-22T07:39:19;19.20;99.90
10512;DHT22;5304;48.604;2.096;2023-07-22T07:42:03;19.30;99.90
10512;DHT22;5304;48.604;2.096;2023-07-22T07:44:48;19.40;99.90
10512;DHT22;5304;48.604;2.096;2023-07-22T07:47:33;19.70;99.90
10512;DHT22;5304;48.604;2.096;2023-07-22T07:50:17;19.90;99.90
10512;DHT22;5304;48.604;2.096;2023-07-22T07:53:03;19.90;99.90
10512;DHT22;5304;48.604;2.096;2023-07-22T07:55:47;20.10;99.90
10512;DHT22;5304;48.604;2.096;2023-07-22T07:58:31;20.40;99.90
10512;DHT22;5304;48.604;2.096;2023-07-22T08:01:16;20.80;99.90
10512;DHT22;5304;48.604;2.096;2023-07-22T08:04:00;21.40;99.90
10512;DHT22;5304;48.604;2.096;2023-07-22T08:06:44;22.40;99.90
10512;DHT22;5304;48.604;2.096;2023-07-22T08:09:29;23.70;99.90
10512;DHT22;5304;48.604;2.096;2023-07-22T08:12:13;24.30;99.90
10512;DHT22;5304;48.604;2.096;2023-07-22T08:14:57;24.50;99.90
10512;DHT22;5304;48.604;2.096;2023-07-22T08:17:41;24.40;99.90
10512;DHT22;5304;48.604;2.096;2023-07-22T08:20:25;23.90;99.90
10512;DHT22;5304;48.604;2.096;2023-07-22T08:23:10;23.60;99.90
10512;DHT22;5304;48.604;2.096;2023-07-22T08:25:55;23.30;99.90
10512;DHT22;5304;48.604;2.096;2023-07-22T08:28:40;22.90;99.90
10512;DHT22;5304;48.604;2.096;2023-07-22T08:31:24;22.70;99.90
10512;DHT22;5304;48.604;2.096;2023-07-22T08:34:08;22.80;99.90
10512;DHT22;5304;48.604;2.096;2023-07-22T08:36:53;23.00;99.90
10512;DHT22;5304;48.604;2.096;2023-07-22T08:39:37;23.70;99.90
10512;DHT22;5304;48.604;2.096;2023-07-22T08:42:23;24.30;99.90
10512;DHT22;5304;48.604;2.096;2023-07-22T08:45:10;24.20;99.90
10512;DHT22;5304;48.604;2.096;2023-07-22T08:47:56;23.40;99.90
10512;DHT22;5304;48.604;2.096;2023-07-22T08:50:52;23.00;99.90
10512;DHT22;5304;48.604;2.096;2023-07-22T08:53:37;23.00;99.90
10512;DHT22;5304;48.604;2.096;2023-07-22T08:56:22;23.00;99.90
10512;DHT22;5304;48.604;2.096;2023-07-22T08:59:07;23.00;99.90
10512;DHT22;5304;48.604;2.096;2023-07-22T09:01:51;23.20;99.90
10512;DHT22;5304;48.604;2.096;2023-07-22T09:04:36;23.10;99.90
10512;DHT22;5304;48.604;2.096;2023-07-22T09:07:20;23.00;99.90
10512;DHT22;5304;48.604;2.096;2023-07-22T09:10:06;23.10;99.90
10512;DHT22;5304;48.604;2.096;2023-07-22T09:12:52;23.30;99.90
10512;DHT22;5304;48.604;2.096;2023-07-22T09:15:37;23.80;99.90
10512;DHT22;5304;48.604;2.096;2023-07-22T09:18:21;24.30;99.90
10512;DHT22;5304;48.604;2.096;2023-07-22T09:21:05;24.40;99.90
10512;DHT22;5304;48.604;2.096;2023-07-22T09:23:49;24.70;99.90
10512;DHT22;5304;48.604;2.096;2023-07-22T09:26:34;24.90;99.90
10512;DHT22;5304;48.604;2.096;2023-07-22T09:29:18;25.10;99.90
10512;DHT22;5304;48.604;2.096;2023-07-22T09:32:16;25.30;99.90
10512;DHT22;5304;48.604;2.096;2023-07-22T09:35:00;24.90;99.90
10512;DHT22;5304;48.604;2.096;2023-07-22T09:37:44;24.80;99.90
10512;DHT22;5304;48.604;2.096;2023-07-22T09:40:29;24.80;99.90
10512;DHT22;5304;48.604;2.096;2023-07-22T09:43:13;24.80;99.90
10512;DHT22;5304;48.604;2.096;2023-07-22T09:46:08;25.10;99.90
10512;DHT22;5304;48.604;2.096;2023-07-22T09:48:53;24.40;99.90
10512;DHT22;5304;48.604;2.096;2023-07-22T09:51:40;24.20;99.90
10512;DHT22;5304;48.604;2.096;2023-07-22T09:54:26;24.30;99.90
10512;DHT22;5304;48.604;2.096;2023-07-22T09:57:13;24.20;99.90
10512;DHT22;5304;48.604;2.096;2023-07-22T09:59:57;24.20;99.90
10512;DHT22;5304;48.604;2.096;2023-07-22T10:02:43;24.20;99.90
10512;DHT22;5304;48.604;2.096;2023-07-22T10:05:28;24.10;99.90
10512;DHT22;5304;48.604;2.096;2023-07-22T10:08:18;24.10;99.90
10512;DHT22;5304;48.604;2.096;2023-07-22T10:11:05;24.60;99.90
10512;DHT22;5304;48.604;2.096;2023-07-22T10:13:53;25.10;99.90
10512;DHT22;5304;48.604;2.096;2023-07-22T10:16:39;25.00;99.90
10512;DHT22;5304;48.604;2.096;2023-07-22T10:19:24;24.90;99.90
10512;DHT22;5304;48.604;2.096;2023-07-22T10:22:09;25.10;99.90
10512;DHT22;5304;48.604;2.096;2023-07-22T10:24:55;25.10;99.90
10512;DHT22;5304;48.604;2.096;2023-07-22T10:27:40;24.80;99.90
10512;DHT22;5304;48.604;2.096;2023-07-22T10:30:25;24.60;99.90
10512;DHT22;5304;48.604;2.096;2023-07-22T10:33:09;24.40;99.90
10512;DHT22;5304;48.604;2.096;2023-07-22T10:36:06;24.30;99.90
10512;DHT22;5304;48.604;2.096;2023-07-22T10:38:58;24.40;99.90
10512;DHT22;5304;48.604;2.096;2023-07-22T10:41:47;25.30;99.90
10512;DHT22;5304;48.604;2.096;2023-07-22T10:44:38;25.40;99.90
10512;DHT22;5304;48.604;2.096;2023-07-22T10:47:34;24.90;99.90
10512;DHT22;5304;48.604;2.096;2023-07-22T10:50:20;24.90;99.90
10512;DHT22;5304;48.604;2.096;2023-07-22T10:53:04;24.90;99.90
10512;DHT22;5304;48.604;2.096;2023-07-22T10:56:06;25.10;99.90
10512;DHT22;5304;48.604;2.096;2023-07-22T11:01:36;25.20;99.90
10512;DHT22;5304;48.604;2.096;2023-07-22T11:04:23;24.90;99.90
10512;DHT22;5304;48.604;2.096;2023-07-22T11:07:33;24.50;99.90
10512;DHT22;5304;48.604;2.096;2023-07-22T11:10:18;24.40;99.90
10512;DHT22;5304;48.604;2.096;2023-07-22T11:13:03;24.50;99.90
10512;DHT22;5304;48.604;2.096;2023-07-22T11:15:48;24.60;99.90
10512;DHT22;5304;48.604;2.096;2023-07-22T11:18:36;24.70;99.90
10512;DHT22;5304;48.604;2.096;2023-07-22T11:21:21;24.90;99.90
10512;DHT22;5304;48.604;2.096;2023-07-22T11:24:07;24.80;99.90
10512;DHT22;5304;48.604;2.096;2023-07-22T11:26:53;24.90;99.90
10512;DHT22;5304;48.604;2.096;2023-07-22T11:29:37;25.00;99.90
10512;DHT22;5304;48.604;2.096;2023-07-22T11:32:21;25.00;99.90
10512;DHT22;5304;48.604;2.096;2023-07-22T11:35:06;25.40;99.90
10512;DHT22;5304;48.604;2.096;2023-07-22T11:38:00;25.50;99.90
10512;DHT22;5304;48.604;2.096;2023-07-22T11:40:46;25.30;99.90
10512;DHT22;5304;48.604;2.096;2023-07-22T11:43:32;25.10;99.90
10512;DHT22;5304;48.604;2.096;2023-07-22T11:46:16;24.60;99.90
10512;DHT22;5304;48.604;2.096;2023-07-22T11:49:00;24.30;99.90
10512;DHT22;5304;48.604;2.096;2023-07-22T11:51:45;24.80;99.90
10512;DHT22;5304;48.604;2.096;2023-07-22T11:54:31;25.30;99.90
10512;DHT22;5304;48.604;2.096;2023-07-22T11:57:20;25.60;99.90
10512;DHT22;5304;48.604;2.096;2023-07-22T12:00:08;25.90;99.90
10512;DHT22;5304;48.604;2.096;2023-07-22T12:02:53;26.00;99.90
10512;DHT22;5304;48.604;2.096;2023-07-22T12:05:41;26.30;99.90
10512;DHT22;5304;48.604;2.096;2023-07-22T12:08:25;26.50;99.90
10512;DHT22;5304;48.604;2.096;2023-07-22T12:11:22;26.60;99.90
10512;DHT22;5304;48.604;2.096;2023-07-22T12:14:11;26.70;99.90
10512;DHT22;5304;48.604;2.096;2023-07-22T12:16:56;26.90;99.90
10512;DHT22;5304;48.604;2.096;2023-07-22T12:19:51;26.60;99.90
10512;DHT22;5304;48.604;2.096;2023-07-22T12:22:37;26.30;99.90
10512;DHT22;5304;48.604;2.096;2023-07-22T12:25:21;26.90;99.90
10512;DHT22;5304;48.604;2.096;2023-07-22T12:28:05;26.80;99.90
10512;DHT22;5304;48.604;2.096;2023-07-22T12:30:52;26.60;99.90
10512;DHT22;5304;48.604;2.096;2023-07-22T12:33:36;26.90;99.90
10512;DHT22;5304;48.604;2.096;2023-07-22T12:36:20;26.90;99.90
10512;DHT22;5304;48.604;2.096;2023-07-22T12:39:05;27.10;99.90
10512;DHT22;5304;48.604;2.096;2023-07-22T12:41:49;27.70;99.90
10512;DHT22;5304;48.604;2.096;2023-07-22T12:44:34;28.00;99.90
10512;DHT22;5304;48.604;2.096;2023-07-22T12:47:18;27.80;99.90
10512;DHT22;5304;48.604;2.096;2023-07-22T12:50:02;28.10;99.90
10512;DHT22;5304;48.604;2.096;2023-07-22T12:52:47;27.90;99.90
10512;DHT22;5304;48.604;2.096;2023-07-22T12:55:31;27.80;99.90
10512;DHT22;5304;48.604;2.096;2023-07-22T12:58:15;27.60;99.90
10512;DHT22;5304;48.604;2.096;2023-07-22T13:01:00;27.20;99.90
10512;DHT22;5304;48.604;2.096;2023-07-22T13:03:44;27.40;99.90
10512;DHT22;5304;48.604;2.096;2023-07-22T13:06:28;27.30;99.90
10512;DHT22;5304;48.604;2.096;2023-07-22T13:09:13;27.10;99.90
10512;DHT22;5304;48.604;2.096;2023-07-22T13:11:57;27.00;99.90
10512;DHT22;5304;48.604;2.096;2023-07-22T13:14:41;27.00;99.90
10512;DHT22;5304;48.604;2.096;2023-07-22T13:17:25;27.10;99.90
10512;DHT22;5304;48.604;2.096;2023-07-22T13:20:11;27.00;99.90
10512;DHT22;5304;48.604;2.096;2023-07-22T13:22:55;27.00;99.90
10512;DHT22;5304;48.604;2.096;2023-07-22T13:25:39;27.10;99.90
10512;DHT22;5304;48.604;2.096;2023-07-22T13:28:24;27.00;99.90
10512;DHT22;5304;48.604;2.096;2023-07-22T13:31:08;27.20;99.90
10512;DHT22;5304;48.604;2.096;2023-07-22T13:33:54;27.50;99.90
10512;DHT22;5304;48.604;2.096;2023-07-22T13:36:38;27.40;99.90
10512;DHT22;5304;48.604;2.096;2023-07-22T13:39:23;27.00;99.90
10512;DHT22;5304;48.604;2.096;2023-07-22T13:42:08;26.90;99.90
10512;DHT22;5304;48.604;2.096;2023-07-22T13:44:52;27.00;99.90
10512;DHT22;5304;48.604;2.096;2023-07-22T13:47:37;27.10;99.90
10512;DHT22;5304;48.604;2.096;2023-07-22T13:50:21;27.40;99.90
10512;DHT22;5304;48.604;2.096;2023-07-22T13:53:05;27.70;99.90
10512;DHT22;5304;48.604;2.096;2023-07-22T13:55:50;27.30;99.90
10512;DHT22;5304;48.604;2.096;2023-07-22T13:58:34;26.90;99.90
10512;DHT22;5304;48.604;2.096;2023-07-22T14:01:18;26.80;99.90
10512;DHT22;5304;48.604;2.096;2023-07-22T14:04:02;27.00;99.90
10512;DHT22;5304;48.604;2.096;2023-07-22T14:06:46;27.30;99.90
10512;DHT22;5304;48.604;2.096;2023-07-22T14:09:31;27.50;99.90
10512;DHT22;5304;48.604;2.096;2023-07-22T14:12:15;27.50;99.90
10512;DHT22;5304;48.604;2.096;2023-07-22T14:14:59;27.20;99.90
10512;DHT22;5304;48.604;2.096;2023-07-22T14:17:43;26.80;99.90
10512;DHT22;5304;48.604;2.096;2023-07-22T14:20:28;26.90;99.90
10512;DHT22;5304;48.604;2.096;2023-07-22T14:23:14;26.90;99.90
10512;DHT22;5304;48.604;2.096;2023-07-22T14:25:58;26.80;99.90
10512;DHT22;5304;48.604;2.096;2023-07-22T14:28:44;26.80;99.90
10512;DHT22;5304;48.604;2.096;2023-07-22T14:31:28;26.80;99.90
10512;DHT22;5304;48.604;2.096;2023-07-22T14:34:13;26.70;99.90
10512;DHT22;5304;48.604;2.096;2023-07-22T14:36:57;26.90;99.90
10512;DHT22;5304;48.604;2.096;2023-07-22T14:39:41;27.00;99.90
10512;DHT22;5304;48.604;2.096;2023-07-22T14:42:25;27.20;99.90
10512;DHT22;5304;48.604;2.096;2023-07-22T14:45:10;27.30;99.90
10512;DHT22;5304;48.604;2.096;2023-07-22T14:47:56;27.00;99.90
10512;DHT22;5304;48.604;2.096;2023-07-22T14:50:40;26.80;99.90
10512;DHT22;5304;48.604;2.096;2023-07-22T14:53:24;26.90;99.90
10512;DHT22;5304;48.604;2.096;2023-07-22T14:56:09;27.00;99.90
10512;DHT22;5304;48.604;2.096;2023-07-22T14:58:53;27.00;99.90
10512;DHT22;5304;48.604;2.096;2023-07-22T15:01:38;27.10;99.90
10512;DHT22;5304;48.604;2.096;2023-07-22T15:04:22;27.20;99.90
10512;DHT22;5304;48.604;2.096;2023-07-22T15:07:07;27.50;99.90
10512;DHT22;5304;48.604;2.096;2023-07-22T15:09:56;27.50;99.90
10512;DHT22;5304;48.604;2.096;2023-07-22T15:12:42;27.30;99.90
10512;DHT22;5304;48.604;2.096;2023-07-22T15:15:27;27.30;99.90
10512;DHT22;5304;48.604;2.096;2023-07-22T15:18:12;27.20;99.90
10512;DHT22;5304;48.604;2.096;2023-07-22T15:20:56;27.10;99.90
10512;DHT22;5304;48.604;2.096;2023-07-22T15:23:40;27.00;99.90
10512;DHT22;5304;48.604;2.096;2023-07-22T15:26:26;27.00;99.90
10512;DHT22;5304;48.604;2.096;2023-07-22T15:29:10;27.10;99.90
10512;DHT22;5304;48.604;2.096;2023-07-22T15:31:54;27.10;99.90
10512;DHT22;5304;48.604;2.096;2023-07-22T15:34:39;27.00;99.90
10512;DHT22;5304;48.604;2.096;2023-07-22T15:37:23;27.20;99.90
10512;DHT22;5304;48.604;2.096;2023-07-22T15:40:07;27.50;99.90
10512;DHT22;5304;48.604;2.096;2023-07-22T15:42:52;27.50;99.90
10512;DHT22;5304;48.604;2.096;2023-07-22T15:45:36;27.20;99.90
10512;DHT22;5304;48.604;2.096;2023-07-22T15:48:21;26.90;99.90
10512;DHT22;5304;48.604;2.096;2023-07-22T15:51:05;26.60;99.90
10512;DHT22;5304;48.604;2.096;2023-07-22T15:53:50;26.50;99.90
10512;DHT22;5304;48.604;2.096;2023-07-22T15:56:34;26.50;99.90
10512;DHT22;5304;48.604;2.096;2023-07-22T15:59:19;26.30;99.90
10512;DHT22;5304;48.604;2.096;2023-07-22T16:02:04;26.30;99.90
10512;DHT22;5304;48.604;2.096;2023-07-22T16:04:48;26.20;99.90
10512;DHT22;5304;48.604;2.096;2023-07-22T16:07:34;26.20;99.90
10512;DHT22;5304;48.604;2.096;2023-07-22T16:10:20;26.30;99.90
10512;DHT22;5304;48.604;2.096;2023-07-22T16:13:04;26.20;99.90
10512;DHT22;5304;48.604;2.096;2023-07-22T16:15:49;26.30;99.90
10512;DHT22;5304;48.604;2.096;2023-07-22T16:18:34;26.60;99.90
10512;DHT22;5304;48.604;2.096;2023-07-22T16:21:19;26.60;99.90
10512;DHT22;5304;48.604;2.096;2023-07-22T16:24:03;26.60;99.90
10512;DHT22;5304;48.604;2.096;2023-07-22T16:26:49;26.50;99.90
10512;DHT22;5304;48.604;2.096;2023-07-22T16:29:34;26.40;99.90
10512;DHT22;5304;48.604;2.096;2023-07-22T16:32:21;26.30;99.90
10512;DHT22;5304;48.604;2.096;2023-07-22T16:35:06;26.20;99.90
10512;DHT22;5304;48.604;2.096;2023-07-22T16:37:50;26.20;99.90
10512;DHT22;5304;48.604;2.096;2023-07-22T16:40:35;26.10;99.90
10512;DHT22;5304;48.604;2.096;2023-07-22T16:43:19;26.10;99.90
10512;DHT22;5304;48.604;2.096;2023-07-22T16:46:04;26.00;99.90
10512;DHT22;5304;48.604;2.096;2023-07-22T16:48:48;26.10;99.90
10512;DHT22;5304;48.604;2.096;2023-07-22T16:51:33;26.10;99.90
10512;DHT22;5304;48.604;2.096;2023-07-22T16:54:17;26.10;99.90
10512;DHT22;5304;48.604;2.096;2023-07-22T16:57:01;26.10;99.90
10512;DHT22;5304;48.604;2.096;2023-07-22T16:59:46;26.10;99.90
10512;DHT22;5304;48.604;2.096;2023-07-22T17:02:30;26.20;99.90
10512;DHT22;5304;48.604;2.096;2023-07-22T17:05:14;26.20;99.90
10512;DHT22;5304;48.604;2.096;2023-07-22T17:07:59;26.20;99.90
10512;DHT22;5304;48.604;2.096;2023-07-22T17:10:44;26.20;99.90
10512;DHT22;5304;48.604;2.096;2023-07-22T17:13:28;26.10;99.90
10512;DHT22;5304;48.604;2.096;2023-07-22T17:16:12;26.10;99.90
10512;DHT22;5304;48.604;2.096;2023-07-22T17:18:57;26.10;99.90
10512;DHT22;5304;48.604;2.096;2023-07-22T17:21:41;26.10;99.90
10512;DHT22;5304;48.604;2.096;2023-07-22T17:24:26;25.90;99.90
10512;DHT22;5304;48.604;2.096;2023-07-22T17:27:10;25.80;99.90
10512;DHT22;5304;48.604;2.096;2023-07-22T17:29:55;25.60;99.90
10512;DHT22;5304;48.604;2.096;2023-07-22T17:32:39;25.60;99.90
10512;DHT22;5304;48.604;2.096;2023-07-22T17:35:23;25.50;99.90
10512;DHT22;5304;48.604;2.096;2023-07-22T17:38:08;25.50;99.90
10512;DHT22;5304;48.604;2.096;2023-07-22T17:40:52;25.40;99.90
10512;DHT22;5304;48.604;2.096;2023-07-22T17:43:36;25.30;99.90
10512;DHT22;5304;48.604;2.096;2023-07-22T17:46:20;25.20;99.90
10512;DHT22;5304;48.604;2.096;2023-07-22T17:49:06;25.30;99.90
10512;DHT22;5304;48.604;2.096;2023-07-22T17:51:50;25.10;99.90
10512;DHT22;5304;48.604;2.096;2023-07-22T17:54:34;25.10;99.90
10512;DHT22;5304;48.604;2.096;2023-07-22T17:57:18;25.00;99.90
10512;DHT22;5304;48.604;2.096;2023-07-22T18:00:03;25.00;99.90
10512;DHT22;5304;48.604;2.096;2023-07-22T18:02:48;25.00;99.90
10512;DHT22;5304;48.604;2.096;2023-07-22T18:05:32;24.90;99.90
10512;DHT22;5304;48.604;2.096;2023-07-22T18:08:17;25.00;99.90
10512;DHT22;5304;48.604;2.096;2023-07-22T18:11:02;24.80;99.90
10512;DHT22;5304;48.604;2.096;2023-07-22T18:13:45;24.80;99.90
10512;DHT22;5304;48.604;2.096;2023-07-22T18:16:30;24.80;99.90
10512;DHT22;5304;48.604;2.096;2023-07-22T18:19:14;24.70;99.90
10512;DHT22;5304;48.604;2.096;2023-07-22T18:21:58;24.60;99.90
10512;DHT22;5304;48.604;2.096;2023-07-22T18:24:43;24.60;99.90
10512;DHT22;5304;48.604;2.096;2023-07-22T18:27:27;24.60;99.90
10512;DHT22;5304;48.604;2.096;2023-07-22T18:30:11;24.60;99.90
10512;DHT22;5304;48.604;2.096;2023-07-22T18:32:55;24.50;99.90
10512;DHT22;5304;48.604;2.096;2023-07-22T18:35:45;24.50;99.90
10512;DHT22;5304;48.604;2.096;2023-07-22T18:38:29;24.50;99.90
10512;DHT22;5304;48.604;2.096;2023-07-22T18:41:14;24.50;99.90
10512;DHT22;5304;48.604;2.096;2023-07-22T18:43:58;24.40;99.90
10512;DHT22;5304;48.604;2.096;2023-07-22T18:46:42;24.30;99.90
10512;DHT22;5304;48.604;2.096;2023-07-22T18:49:26;24.20;99.90
10512;DHT22;5304;48.604;2.096;2023-07-22T18:52:12;24.20;99.90
10512;DHT22;5304;48.604;2.096;2023-07-22T18:54:56;24.10;99.90
10512;DHT22;5304;48.604;2.096;2023-07-22T18:57:40;24.00;99.90
10512;DHT22;5304;48.604;2.096;2023-07-22T19:00:25;23.90;99.90
10512;DHT22;5304;48.604;2.096;2023-07-22T19:03:10;23.80;99.90
10512;DHT22;5304;48.604;2.096;2023-07-22T19:05:55;23.70;99.90
10512;DHT22;5304;48.604;2.096;2023-07-22T19:08:39;23.70;99.90
10512;DHT22;5304;48.604;2.096;2023-07-22T19:11:24;23.60;99.90
10512;DHT22;5304;48.604;2.096;2023-07-22T19:14:08;23.50;99.90
10512;DHT22;5304;48.604;2.096;2023-07-22T19:16:55;23.50;99.90
10512;DHT22;5304;48.604;2.096;2023-07-22T19:19:39;23.40;99.90
10512;DHT22;5304;48.604;2.096;2023-07-22T19:22:25;23.30;99.90
10512;DHT22;5304;48.604;2.096;2023-07-22T19:25:10;23.30;99.90
10512;DHT22;5304;48.604;2.096;2023-07-22T19:27:55;23.20;99.90
10512;DHT22;5304;48.604;2.096;2023-07-22T19:30:40;23.10;99.90
10512;DHT22;5304;48.604;2.096;2023-07-22T19:33:24;23.00;99.90
10512;DHT22;5304;48.604;2.096;2023-07-22T19:36:10;23.00;99.90
10512;DHT22;5304;48.604;2.096;2023-07-22T19:38:54;22.80;99.90
10512;DHT22;5304;48.604;2.096;2023-07-22T19:41:39;22.80;99.90
10512;DHT22;5304;48.604;2.096;2023-07-22T19:44:23;22.70;99.90
10512;DHT22;5304;48.604;2.096;2023-07-22T19:47:07;22.70;99.90
10512;DHT22;5304;48.604;2.096;2023-07-22T19:49:52;22.60;99.90
10512;DHT22;5304;48.604;2.096;2023-07-22T19:52:36;22.50;99.90
10512;DHT22;5304;48.604;2.096;2023-07-22T19:55:21;22.40;99.90
10512;DHT22;5304;48.604;2.096;2023-07-22T19:58:05;22.50;99.90
10512;DHT22;5304;48.604;2.096;2023-07-22T20:00:50;22.40;99.90
10512;DHT22;5304;48.604;2.096;2023-07-22T20:03:35;22.20;99.90
10512;DHT22;5304;48.604;2.096;2023-07-22T20:06:19;22.20;99.90
10512;DHT22;5304;48.604;2.096;2023-07-22T20:09:03;22.10;99.90
10512;DHT22;5304;48.604;2.096;2023-07-22T20:11:48;22.10;99.90
10512;DHT22;5304;48.604;2.096;2023-07-22T20:14:32;22.00;99.90
10512;DHT22;5304;48.604;2.096;2023-07-22T20:17:17;21.90;99.90
10512;DHT22;5304;48.604;2.096;2023-07-22T20:20:01;21.90;99.90
10512;DHT22;5304;48.604;2.096;2023-07-22T20:22:45;21.80;99.90
10512;DHT22;5304;48.604;2.096;2023-07-22T20:25:30;21.70;99.90
10512;DHT22;5304;48.604;2.096;2023-07-22T20:28:14;21.70;99.90
